sensor_id;sensor_type;location;lat;lon;timestamp;temperature;humidity
4697;DHT22;2362;50.780;0.292;2023-03-22T00:01:21;10.20;99.90
4697;DHT22;2362;50.780;0.292;2023-03-22T00:03:47;10.10;99.90
4697;DHT22;2362;50.780;0.292;2023-03-22T00:06:14;10.10;99.90
4697;DHT22;2362;50.780;0.292;2023-03-22T00:08:41;10.10;99.90
4697;DHT22;2362;50.780;0.292;2023-03-22T00:11:06;10.10;99.90
4697;DHT22;2362;50.780;0.292;2023-03-22T00:13:33;10.10;99.90
4697;DHT22;2362;50.780;0.292;2023-03-22T00:15:59;10.10;99.90
4697;DHT22;2362;50.780;0.292;2023-03-22T00:18:28;10.10;99.90
4697;DHT22;2362;50.780;0.292;2023-03-22T00:20:56;10.10;99.90
4697;DHT22;2362;50.780;0.292;2023-03-22T00:23:23;10.10;99.90
4697;DHT22;2362;50.780;0.292;2023-03-22T00:25:49;10.20;99.90
4697;DHT22;2362;50.780;0.292;2023-03-22T00:28:15;10.20;99.90
4697;DHT22;2362;50.780;0.292;2023-03-22T00:30:49;10.20;99.90
4697;DHT22;2362;50.780;0.292;2023-03-22T00:33:15;10.30;99.90
4697;DHT22;2362;50.780;0.292;2023-03-22T00:35:51;10.30;99.90
4697;DHT22;2362;50.780;0.292;2023-03-22T00:38:16;10.20;99.90
4697;DHT22;2362;50.780;0.292;2023-03-22T00:40:42;10.20;99.90
4697;DHT22;2362;50.780;0.292;2023-03-22T00:43:08;10.20;99.90
4697;DHT22;2362;50.780;0.292;2023-03-22T00:45:34;10.20;99.90
4697;DHT22;2362;50.780;0.292;2023-03-22T00:48:02;10.20;99.90
4697;DHT22;2362;50.780;0.292;2023-03-22T00:50:28;10.20;99.90
4697;DHT22;2362;50.780;0.292;2023-03-22T00:52:54;10.20;99.90
4697;DHT22;2362;50.780;0.292;2023-03-22T00:55:20;10.20;99.90
4697;DHT22;2362;50.780;0.292;2023-03-22T00:57:46;10.20;99.90
4697;DHT22;2362;50.780;0.292;2023-03-22T01:00:12;10.20;99.90
4697;DHT22;2362;50.780;0.292;2023-03-22T01:02:41;10.20;99.90
4697;DHT22;2362;50.780;0.292;2023-03-22T01:05:08;10.20;99.90
4697;DHT22;2362;50.780;0.292;2023-03-22T01:07:34;10.20;99.90
4697;DHT22;2362;50.780;0.292;2023-03-22T01:10:05;10.10;99.90
4697;DHT22;2362;50.780;0.292;2023-03-22T01:12:31;10.20;99.90
4697;DHT22;2362;50.780;0.292;2023-03-22T01:14:56;10.20;99.90
4697;DHT22;2362;50.780;0.292;2023-03-22T01:17:22;10.20;99.90
4697;DHT22;2362;50.780;0.292;2023-03-22T01:19:52;10.20;99.90
4697;DHT22;2362;50.780;0.292;2023-03-22T01:22:17;10.10;99.90
4697;DHT22;2362;50.780;0.292;2023-03-22T01:24:43;10.10;99.90
4697;DHT22;2362;50.780;0.292;2023-03-22T01:27:09;10.10;99.90
4697;DHT22;2362;50.780;0.292;2023-03-22T01:29:35;10.10;99.90
4697;DHT22;2362;50.780;0.292;2023-03-22T01:32:01;10.10;99.90
4697;DHT22;2362;50.780;0.292;2023-03-22T01:34:28;10.20;99.90
4697;DHT22;2362;50.780;0.292;2023-03-22T01:36:55;10.20;99.90
4697;DHT22;2362;50.780;0.292;2023-03-22T01:39:21;10.20;99.90
4697;DHT22;2362;50.780;0.292;2023-03-22T01:42:14;10.20;99.90
4697;DHT22;2362;50.780;0.292;2023-03-22T01:44:43;10.20;99.90
4697;DHT22;2362;50.780;0.292;2023-03-22T01:47:11;10.10;99.90
4697;DHT22;2362;50.780;0.292;2023-03-22T01:49:38;10.10;99.90
4697;DHT22;2362;50.780;0.292;2023-03-22T01:52:11;10.00;99.90
4697;DHT22;2362;50.780;0.292;2023-03-22T01:54:44;9.90;99.90
4697;DHT22;2362;50.780;0.292;2023-03-22T01:57:11;9.90;99.90
4697;DHT22;2362;50.780;0.292;2023-03-22T01:59:39;9.90;99.90
4697;DHT22;2362;50.780;0.292;2023-03-22T02:02:05;9.90;99.90
4697;DHT22;2362;50.780;0.292;2023-03-22T02:04:33;9.90;99.90
4697;DHT22;2362;50.780;0.292;2023-03-22T02:07:09;9.90;99.90
4697;DHT22;2362;50.780;0.292;2023-03-22T02:09:40;9.90;99.90
4697;DHT22;2362;50.780;0.292;2023-03-22T02:42:56;10.00;99.90
4697;DHT22;2362;50.780;0.292;2023-03-22T02:54:29;10.10;99.90
4697;DHT22;2362;50.780;0.292;2023-03-22T02:57:08;10.10;99.90
4697;DHT22;2362;50.780;0.292;2023-03-22T02:59:37;10.10;99.90
4697;DHT22;2362;50.780;0.292;2023-03-22T03:02:08;10.10;99.90
4697;DHT22;2362;50.780;0.292;2023-03-22T03:04:42;10.10;99.90
4697;DHT22;2362;50.780;0.292;2023-03-22T03:07:11;10.10;99.90
4697;DHT22;2362;50.780;0.292;2023-03-22T03:09:39;10.10;99.90
4697;DHT22;2362;50.780;0.292;2023-03-22T03:12:26;10.10;99.90
4697;DHT22;2362;50.780;0.292;2023-03-22T03:14:52;10.10;99.90
4697;DHT22;2362;50.780;0.292;2023-03-22T03:17:33;10.10;99.90
4697;DHT22;2362;50.780;0.292;2023-03-22T03:23:13;10.10;99.90
4697;DHT22;2362;50.780;0.292;2023-03-22T03:26:00;10.10;99.90
4697;DHT22;2362;50.780;0.292;2023-03-22T03:31:39;10.00;99.90
4697;DHT22;2362;50.780;0.292;2023-03-22T03:36:45;10.10;99.90
4697;DHT22;2362;50.780;0.292;2023-03-22T03:39:14;10.10;99.90
4697;DHT22;2362;50.780;0.292;2023-03-22T03:41:43;10.00;99.90
4697;DHT22;2362;50.780;0.292;2023-03-22T03:44:11;10.00;99.90
4697;DHT22;2362;50.780;0.292;2023-03-22T03:46:37;10.00;99.90
4697;DHT22;2362;50.780;0.292;2023-03-22T03:49:04;10.00;99.90
4697;DHT22;2362;50.780;0.292;2023-03-22T03:51:32;10.00;99.90
4697;DHT22;2362;50.780;0.292;2023-03-22T03:54:23;10.00;99.90
4697;DHT22;2362;50.780;0.292;2023-03-22T03:56:49;9.90;99.90
4697;DHT22;2362;50.780;0.292;2023-03-22T03:59:16;9.90;99.90
4697;DHT22;2362;50.780;0.292;2023-03-22T04:01:43;9.90;99.90
4697;DHT22;2362;50.780;0.292;2023-03-22T04:04:18;9.90;99.90
4697;DHT22;2362;50.780;0.292;2023-03-22T04:06:54;9.90;99.90
4697;DHT22;2362;50.780;0.292;2023-03-22T04:09:22;9.90;99.90
4697;DHT22;2362;50.780;0.292;2023-03-22T04:11:48;9.90;99.90
4697;DHT22;2362;50.780;0.292;2023-03-22T04:14:14;9.80;99.90
4697;DHT22;2362;50.780;0.292;2023-03-22T04:16:40;9.80;99.90
4697;DHT22;2362;50.780;0.292;2023-03-22T04:19:05;9.80;99.90
4697;DHT22;2362;50.780;0.292;2023-03-22T04:21:31;9.80;99.90
4697;DHT22;2362;50.780;0.292;2023-03-22T04:23:57;9.80;99.90
4697;DHT22;2362;50.780;0.292;2023-03-22T04:26:23;9.80;99.90
4697;DHT22;2362;50.780;0.292;2023-03-22T04:29:13;9.80;99.90
4697;DHT22;2362;50.780;0.292;2023-03-22T04:31:42;9.80;99.90
4697;DHT22;2362;50.780;0.292;2023-03-22T04:34:07;9.70;99.90
4697;DHT22;2362;50.780;0.292;2023-03-22T04:36:35;9.80;99.90
4697;DHT22;2362;50.780;0.292;2023-03-22T04:39:13;9.70;99.90
4697;DHT22;2362;50.780;0.292;2023-03-22T04:41:38;9.70;99.90
4697;DHT22;2362;50.780;0.292;2023-03-22T04:44:05;9.70;99.90
4697;DHT22;2362;50.780;0.292;2023-03-22T04:46:32;9.70;99.90
4697;DHT22;2362;50.780;0.292;2023-03-22T04:48:58;9.70;99.90
4697;DHT22;2362;50.780;0.292;2023-03-22T04:51:24;9.70;99.90
4697;DHT22;2362;50.780;0.292;2023-03-22T04:53:51;9.70;99.90
4697;DHT22;2362;50.780;0.292;2023-03-22T04:56:17;9.70;99.90
4697;DHT22;2362;50.780;0.292;2023-03-22T04:58:43;9.70;99.90
4697;DHT22;2362;50.780;0.292;2023-03-22T05:01:11;9.70;99.90
4697;DHT22;2362;50.780;0.292;2023-03-22T05:03:37;9.70;99.90
4697;DHT22;2362;50.780;0.292;2023-03-22T05:06:05;9.70;99.90
4697;DHT22;2362;50.780;0.292;2023-03-22T05:08:32;9.70;99.90
4697;DHT22;2362;50.780;0.292;2023-03-22T05:11:03;9.70;99.90
4697;DHT22;2362;50.780;0.292;2023-03-22T05:13:29;9.70;99.90
4697;DHT22;2362;50.780;0.292;2023-03-22T05:15:55;9.70;99.90
4697;DHT22;2362;50.780;0.292;2023-03-22T05:18:21;9.70;99.90
4697;DHT22;2362;50.780;0.292;2023-03-22T05:20:52;9.70;99.90
4697;DHT22;2362;50.780;0.292;2023-03-22T05:23:19;9.70;99.90
4697;DHT22;2362;50.780;0.292;2023-03-22T05:25:46;9.70;99.90
4697;DHT22;2362;50.780;0.292;2023-03-22T05:28:13;9.70;99.90
4697;DHT22;2362;50.780;0.292;2023-03-22T05:30:40;9.60;99.90
4697;DHT22;2362;50.780;0.292;2023-03-22T05:33:06;9.60;99.90
4697;DHT22;2362;50.780;0.292;2023-03-22T05:35:57;9.60;99.90
4697;DHT22;2362;50.780;0.292;2023-03-22T05:38:23;9.70;99.90
4697;DHT22;2362;50.780;0.292;2023-03-22T05:40:49;9.60;99.90
4697;DHT22;2362;50.780;0.292;2023-03-22T05:43:14;9.60;99.90
4697;DHT22;2362;50.780;0.292;2023-03-22T05:45:40;9.60;99.90
4697;DHT22;2362;50.780;0.292;2023-03-22T05:48:06;9.60;99.90
4697;DHT22;2362;50.780;0.292;2023-03-22T05:50:32;9.70;99.90
4697;DHT22;2362;50.780;0.292;2023-03-22T05:52:58;9.60;99.90
4697;DHT22;2362;50.780;0.292;2023-03-22T05:55:23;9.70;99.90
4697;DHT22;2362;50.780;0.292;2023-03-22T05:57:49;9.70;99.90
4697;DHT22;2362;50.780;0.292;2023-03-22T06:00:17;9.60;99.90
4697;DHT22;2362;50.780;0.292;2023-03-22T06:02:45;9.70;99.90
4697;DHT22;2362;50.780;0.292;2023-03-22T06:05:11;9.60;99.90
4697;DHT22;2362;50.780;0.292;2023-03-22T06:07:38;9.60;99.90
4697;DHT22;2362;50.780;0.292;2023-03-22T06:10:04;9.60;99.90
4697;DHT22;2362;50.780;0.292;2023-03-22T06:12:31;9.60;99.90
4697;DHT22;2362;50.780;0.292;2023-03-22T06:14:57;9.60;99.90
4697;DHT22;2362;50.780;0.292;2023-03-22T06:17:23;9.60;99.90
4697;DHT22;2362;50.780;0.292;2023-03-22T06:19:49;9.60;99.90
4697;DHT22;2362;50.780;0.292;2023-03-22T06:22:15;9.60;99.90
4697;DHT22;2362;50.780;0.292;2023-03-22T06:24:41;9.60;99.90
4697;DHT22;2362;50.780;0.292;2023-03-22T06:27:07;9.60;99.90
4697;DHT22;2362;50.780;0.292;2023-03-22T06:29:34;9.60;99.90
4697;DHT22;2362;50.780;0.292;2023-03-22T06:32:00;9.70;99.90
4697;DHT22;2362;50.780;0.292;2023-03-22T06:34:26;9.70;99.90
4697;DHT22;2362;50.780;0.292;2023-03-22T06:36:52;9.60;99.90
4697;DHT22;2362;50.780;0.292;2023-03-22T06:39:19;9.60;99.90
4697;DHT22;2362;50.780;0.292;2023-03-22T06:42:10;9.60;99.90
4697;DHT22;2362;50.780;0.292;2023-03-22T06:45:02;9.60;99.90
4697;DHT22;2362;50.780;0.292;2023-03-22T06:47:53;9.60;99.90
4697;DHT22;2362;50.780;0.292;2023-03-22T06:50:19;9.60;99.90
4697;DHT22;2362;50.780;0.292;2023-03-22T06:52:44;9.70;99.90
4697;DHT22;2362;50.780;0.292;2023-03-22T06:55:10;9.70;99.90
4697;DHT22;2362;50.780;0.292;2023-03-22T06:57:35;9.70;99.90
4697;DHT22;2362;50.780;0.292;2023-03-22T07:00:02;9.70;99.90
4697;DHT22;2362;50.780;0.292;2023-03-22T07:02:29;9.70;99.90
4697;DHT22;2362;50.780;0.292;2023-03-22T07:04:55;9.70;99.90
4697;DHT22;2362;50.780;0.292;2023-03-22T07:07:20;9.70;99.90
4697;DHT22;2362;50.780;0.292;2023-03-22T07:09:46;9.70;99.90
4697;DHT22;2362;50.780;0.292;2023-03-22T07:12:12;9.80;99.90
4697;DHT22;2362;50.780;0.292;2023-03-22T07:14:37;9.80;99.90
4697;DHT22;2362;50.780;0.292;2023-03-22T07:17:03;9.70;99.90
4697;DHT22;2362;50.780;0.292;2023-03-22T07:19:29;9.80;99.90
4697;DHT22;2362;50.780;0.292;2023-03-22T07:21:59;9.80;99.90
4697;DHT22;2362;50.780;0.292;2023-03-22T07:24:24;9.80;99.90
4697;DHT22;2362;50.780;0.292;2023-03-22T07:26:50;9.80;99.90
4697;DHT22;2362;50.780;0.292;2023-03-22T07:29:16;9.80;99.90
4697;DHT22;2362;50.780;0.292;2023-03-22T07:31:41;9.80;99.90
4697;DHT22;2362;50.780;0.292;2023-03-22T07:34:07;9.80;99.90
4697;DHT22;2362;50.780;0.292;2023-03-22T07:36:33;9.90;99.90
4697;DHT22;2362;50.780;0.292;2023-03-22T07:38:58;9.90;99.90
4697;DHT22;2362;50.780;0.292;2023-03-22T07:41:24;9.90;99.90
4697;DHT22;2362;50.780;0.292;2023-03-22T07:43:51;10.00;99.90
4697;DHT22;2362;50.780;0.292;2023-03-22T07:46:17;10.00;99.90
4697;DHT22;2362;50.780;0.292;2023-03-22T07:48:42;10.10;99.90
4697;DHT22;2362;50.780;0.292;2023-03-22T07:51:08;10.10;99.90
4697;DHT22;2362;50.780;0.292;2023-03-22T07:53:34;10.10;99.90
4697;DHT22;2362;50.780;0.292;2023-03-22T07:56:02;10.10;99.90
4697;DHT22;2362;50.780;0.292;2023-03-22T07:58:27;10.10;99.90
4697;DHT22;2362;50.780;0.292;2023-03-22T08:00:53;10.20;99.90
4697;DHT22;2362;50.780;0.292;2023-03-22T08:03:19;10.20;99.90
4697;DHT22;2362;50.780;0.292;2023-03-22T08:05:46;10.20;99.90
4697;DHT22;2362;50.780;0.292;2023-03-22T08:08:12;10.20;99.90
4697;DHT22;2362;50.780;0.292;2023-03-22T08:10:38;10.30;99.90
4697;DHT22;2362;50.780;0.292;2023-03-22T08:13:04;10.30;99.90
4697;DHT22;2362;50.780;0.292;2023-03-22T08:15:30;10.30;99.90
4697;DHT22;2362;50.780;0.292;2023-03-22T08:17:56;10.40;99.90
4697;DHT22;2362;50.780;0.292;2023-03-22T08:20:23;10.40;99.90
4697;DHT22;2362;50.780;0.292;2023-03-22T08:22:50;10.40;99.90
4697;DHT22;2362;50.780;0.292;2023-03-22T08:25:19;10.50;99.90
4697;DHT22;2362;50.780;0.292;2023-03-22T08:27:45;10.50;99.90
4697;DHT22;2362;50.780;0.292;2023-03-22T08:30:12;10.60;99.90
4697;DHT22;2362;50.780;0.292;2023-03-22T08:32:37;10.60;99.90
4697;DHT22;2362;50.780;0.292;2023-03-22T08:35:04;10.60;99.90
4697;DHT22;2362;50.780;0.292;2023-03-22T08:37:30;10.60;99.90
4697;DHT22;2362;50.780;0.292;2023-03-22T08:40:22;10.70;99.90
4697;DHT22;2362;50.780;0.292;2023-03-22T08:42:48;10.70;99.90
4697;DHT22;2362;50.780;0.292;2023-03-22T08:45:15;10.60;99.90
4697;DHT22;2362;50.780;0.292;2023-03-22T08:47:41;10.60;99.90
4697;DHT22;2362;50.780;0.292;2023-03-22T08:50:08;10.60;99.90
4697;DHT22;2362;50.780;0.292;2023-03-22T08:52:33;10.60;99.90
4697;DHT22;2362;50.780;0.292;2023-03-22T08:55:00;10.60;99.90
4697;DHT22;2362;50.780;0.292;2023-03-22T08:57:26;10.60;99.90
4697;DHT22;2362;50.780;0.292;2023-03-22T08:59:54;10.60;99.90
4697;DHT22;2362;50.780;0.292;2023-03-22T09:02:21;10.70;99.90
4697;DHT22;2362;50.780;0.292;2023-03-22T09:04:47;10.60;99.90
4697;DHT22;2362;50.780;0.292;2023-03-22T09:07:12;10.70;99.90
4697;DHT22;2362;50.780;0.292;2023-03-22T09:09:38;10.60;99.90
4697;DHT22;2362;50.780;0.292;2023-03-22T09:12:04;10.70;99.90
4697;DHT22;2362;50.780;0.292;2023-03-22T09:14:30;10.80;99.90
4697;DHT22;2362;50.780;0.292;2023-03-22T09:16:56;10.70;99.90
4697;DHT22;2362;50.780;0.292;2023-03-22T09:19:22;10.80;99.90
4697;DHT22;2362;50.780;0.292;2023-03-22T09:21:47;10.80;99.90
4697;DHT22;2362;50.780;0.292;2023-03-22T09:24:14;10.90;99.90
4697;DHT22;2362;50.780;0.292;2023-03-22T09:26:40;10.90;99.90
4697;DHT22;2362;50.780;0.292;2023-03-22T09:29:06;10.90;99.90
4697;DHT22;2362;50.780;0.292;2023-03-22T09:31:31;11.00;99.90
4697;DHT22;2362;50.780;0.292;2023-03-22T09:33:57;11.00;99.90
4697;DHT22;2362;50.780;0.292;2023-03-22T09:36:23;11.10;99.90
4697;DHT22;2362;50.780;0.292;2023-03-22T09:38:48;11.20;99.90
4697;DHT22;2362;50.780;0.292;2023-03-22T09:41:23;11.30;99.90
4697;DHT22;2362;50.780;0.292;2023-03-22T09:43:58;11.20;99.90
4697;DHT22;2362;50.780;0.292;2023-03-22T09:46:35;11.30;99.90
4697;DHT22;2362;50.780;0.292;2023-03-22T09:49:05;11.30;99.90
4697;DHT22;2362;50.780;0.292;2023-03-22T09:51:49;11.30;99.90
4697;DHT22;2362;50.780;0.292;2023-03-22T09:54:33;11.30;99.90
4697;DHT22;2362;50.780;0.292;2023-03-22T09:59:35;11.30;99.90
4697;DHT22;2362;50.780;0.292;2023-03-22T10:05:01;11.20;99.90
4697;DHT22;2362;50.780;0.292;2023-03-22T10:08:04;11.10;99.90
4697;DHT22;2362;50.780;0.292;2023-03-22T10:10:32;11.20;99.90
4697;DHT22;2362;50.780;0.292;2023-03-22T10:15:40;11.20;99.90
4697;DHT22;2362;50.780;0.292;2023-03-22T10:18:23;11.30;99.90
4697;DHT22;2362;50.780;0.292;2023-03-22T10:21:10;11.40;99.90
4697;DHT22;2362;50.780;0.292;2023-03-22T10:23:52;11.40;99.90
4697;DHT22;2362;50.780;0.292;2023-03-22T10:26:46;11.40;99.90
4697;DHT22;2362;50.780;0.292;2023-03-22T10:29:33;11.30;99.90
4697;DHT22;2362;50.780;0.292;2023-03-22T10:32:19;11.30;99.90
4697;DHT22;2362;50.780;0.292;2023-03-22T10:34:45;11.20;99.90
4697;DHT22;2362;50.780;0.292;2023-03-22T10:37:30;11.20;99.90
4697;DHT22;2362;50.780;0.292;2023-03-22T10:40:00;11.30;99.90
4697;DHT22;2362;50.780;0.292;2023-03-22T10:42:28;11.10;99.90
4697;DHT22;2362;50.780;0.292;2023-03-22T10:44:56;11.10;99.90
4697;DHT22;2362;50.780;0.292;2023-03-22T10:47:34;11.00;99.90
4697;DHT22;2362;50.780;0.292;2023-03-22T10:50:04;11.00;99.90
4697;DHT22;2362;50.780;0.292;2023-03-22T10:55:11;11.00;99.90
4697;DHT22;2362;50.780;0.292;2023-03-22T10:57:38;11.10;99.90
4697;DHT22;2362;50.780;0.292;2023-03-22T11:00:06;11.00;99.90
4697;DHT22;2362;50.780;0.292;2023-03-22T11:02:50;11.10;99.90
4697;DHT22;2362;50.780;0.292;2023-03-22T11:05:24;11.10;99.90
4697;DHT22;2362;50.780;0.292;2023-03-22T11:07:51;11.20;99.90
4697;DHT22;2362;50.780;0.292;2023-03-22T11:10:22;11.20;99.90
4697;DHT22;2362;50.780;0.292;2023-03-22T11:15:33;11.20;99.90
4697;DHT22;2362;50.780;0.292;2023-03-22T11:18:30;11.30;99.90
4697;DHT22;2362;50.780;0.292;2023-03-22T11:21:09;11.30;99.90
4697;DHT22;2362;50.780;0.292;2023-03-22T11:23:37;11.30;99.90
4697;DHT22;2362;50.780;0.292;2023-03-22T11:26:11;11.30;99.90
4697;DHT22;2362;50.780;0.292;2023-03-22T11:28:49;11.30;99.90
4697;DHT22;2362;50.780;0.292;2023-03-22T11:31:19;11.20;99.90
4697;DHT22;2362;50.780;0.292;2023-03-22T11:33:57;11.10;99.90
4697;DHT22;2362;50.780;0.292;2023-03-22T11:36:24;11.10;99.90
4697;DHT22;2362;50.780;0.292;2023-03-22T11:39:06;11.10;99.90
4697;DHT22;2362;50.780;0.292;2023-03-22T11:41:36;11.10;99.90
4697;DHT22;2362;50.780;0.292;2023-03-22T11:44:13;11.10;99.90
4697;DHT22;2362;50.780;0.292;2023-03-22T11:46:51;11.10;99.90
4697;DHT22;2362;50.780;0.292;2023-03-22T11:49:19;11.20;99.90
4697;DHT22;2362;50.780;0.292;2023-03-22T11:51:45;11.20;99.90
4697;DHT22;2362;50.780;0.292;2023-03-22T11:54:29;11.20;99.90
4697;DHT22;2362;50.780;0.292;2023-03-22T11:57:02;11.20;99.90
4697;DHT22;2362;50.780;0.292;2023-03-22T11:59:46;11.20;99.90
4697;DHT22;2362;50.780;0.292;2023-03-22T12:04:47;11.20;99.90
4697;DHT22;2362;50.780;0.292;2023-03-22T12:07:16;11.20;99.90
4697;DHT22;2362;50.780;0.292;2023-03-22T12:10:09;11.20;99.90
4697;DHT22;2362;50.780;0.292;2023-03-22T12:12:41;11.30;99.90
4697;DHT22;2362;50.780;0.292;2023-03-22T12:15:21;11.30;99.90
4697;DHT22;2362;50.780;0.292;2023-03-22T12:20:46;11.30;99.90
4697;DHT22;2362;50.780;0.292;2023-03-22T12:23:19;11.30;99.90
4697;DHT22;2362;50.780;0.292;2023-03-22T12:31:17;11.40;99.90
4697;DHT22;2362;50.780;0.292;2023-03-22T12:34:30;11.50;99.90
4697;DHT22;2362;50.780;0.292;2023-03-22T12:36:58;11.40;99.90
4697;DHT22;2362;50.780;0.292;2023-03-22T12:39:32;11.40;99.90
4697;DHT22;2362;50.780;0.292;2023-03-22T12:42:08;11.30;99.90
4697;DHT22;2362;50.780;0.292;2023-03-22T12:44:41;11.30;99.90
4697;DHT22;2362;50.780;0.292;2023-03-22T12:47:28;11.40;99.90
4697;DHT22;2362;50.780;0.292;2023-03-22T12:50:03;11.40;99.90
4697;DHT22;2362;50.780;0.292;2023-03-22T12:52:53;11.50;99.90
4697;DHT22;2362;50.780;0.292;2023-03-22T12:57:51;11.50;99.90
4697;DHT22;2362;50.780;0.292;2023-03-22T13:00:20;11.50;99.90
4697;DHT22;2362;50.780;0.292;2023-03-22T13:05:44;11.50;99.90
4697;DHT22;2362;50.780;0.292;2023-03-22T13:08:10;11.50;99.90
4697;DHT22;2362;50.780;0.292;2023-03-22T13:10:40;11.70;99.90
4697;DHT22;2362;50.780;0.292;2023-03-22T13:15:34;11.80;99.90
4697;DHT22;2362;50.780;0.292;2023-03-22T13:18:00;11.80;99.90
4697;DHT22;2362;50.780;0.292;2023-03-22T13:20:27;11.80;99.90
4697;DHT22;2362;50.780;0.292;2023-03-22T13:35:43;12.00;99.90
4697;DHT22;2362;50.780;0.292;2023-03-22T13:38:24;12.10;99.90
4697;DHT22;2362;50.780;0.292;2023-03-22T13:56:36;12.20;99.90
4697;DHT22;2362;50.780;0.292;2023-03-22T14:02:15;12.40;99.90
4697;DHT22;2362;50.780;0.292;2023-03-22T14:05:16;12.60;99.90
4697;DHT22;2362;50.780;0.292;2023-03-22T14:07:52;12.60;99.90
4697;DHT22;2362;50.780;0.292;2023-03-22T14:15:53;12.60;99.90
4697;DHT22;2362;50.780;0.292;2023-03-22T14:18:24;12.70;99.90
4697;DHT22;2362;50.780;0.292;2023-03-22T14:21:00;12.70;99.90
4697;DHT22;2362;50.780;0.292;2023-03-22T14:23:35;12.60;99.90
4697;DHT22;2362;50.780;0.292;2023-03-22T14:26:06;12.60;99.90
4697;DHT22;2362;50.780;0.292;2023-03-22T14:28:38;12.50;99.90
4697;DHT22;2362;50.780;0.292;2023-03-22T14:31:17;12.40;99.90
4697;DHT22;2362;50.780;0.292;2023-03-22T14:33:43;12.30;99.90
4697;DHT22;2362;50.780;0.292;2023-03-22T14:36:12;12.30;99.90
4697;DHT22;2362;50.780;0.292;2023-03-22T14:38:41;12.40;99.90
4697;DHT22;2362;50.780;0.292;2023-03-22T14:41:23;12.40;99.90
4697;DHT22;2362;50.780;0.292;2023-03-22T14:43:58;12.50;99.90
4697;DHT22;2362;50.780;0.292;2023-03-22T14:46:31;12.50;99.90
4697;DHT22;2362;50.780;0.292;2023-03-22T14:48:59;12.60;99.90
4697;DHT22;2362;50.780;0.292;2023-03-22T14:51:45;12.50;99.90
4697;DHT22;2362;50.780;0.292;2023-03-22T14:54:19;12.50;99.90
4697;DHT22;2362;50.780;0.292;2023-03-22T14:56:47;12.50;99.90
4697;DHT22;2362;50.780;0.292;2023-03-22T14:59:16;12.50;99.90
4697;DHT22;2362;50.780;0.292;2023-03-22T15:01:49;12.50;99.90
4697;DHT22;2362;50.780;0.292;2023-03-22T15:04:18;12.40;99.90
4697;DHT22;2362;50.780;0.292;2023-03-22T15:06:48;12.30;99.90
4697;DHT22;2362;50.780;0.292;2023-03-22T15:09:16;12.30;99.90
4697;DHT22;2362;50.780;0.292;2023-03-22T15:11:44;12.30;99.90
4697;DHT22;2362;50.780;0.292;2023-03-22T15:14:11;12.40;99.90
4697;DHT22;2362;50.780;0.292;2023-03-22T15:16:38;12.40;99.90
4697;DHT22;2362;50.780;0.292;2023-03-22T15:19:06;12.40;99.90
4697;DHT22;2362;50.780;0.292;2023-03-22T15:21:34;12.40;99.90
4697;DHT22;2362;50.780;0.292;2023-03-22T15:24:20;12.40;99.90
4697;DHT22;2362;50.780;0.292;2023-03-22T15:26:49;12.40;99.90
4697;DHT22;2362;50.780;0.292;2023-03-22T15:29:16;12.40;99.90
4697;DHT22;2362;50.780;0.292;2023-03-22T15:31:46;12.40;99.90
4697;DHT22;2362;50.780;0.292;2023-03-22T15:34:22;12.30;99.90
4697;DHT22;2362;50.780;0.292;2023-03-22T15:36:49;12.20;99.90
4697;DHT22;2362;50.780;0.292;2023-03-22T15:46:57;12.10;99.90
4697;DHT22;2362;50.780;0.292;2023-03-22T16:02:32;11.70;99.90
4697;DHT22;2362;50.780;0.292;2023-03-22T16:04:59;11.60;99.90
4697;DHT22;2362;50.780;0.292;2023-03-22T16:07:28;11.50;99.90
4697;DHT22;2362;50.780;0.292;2023-03-22T16:09:54;11.40;99.90
4697;DHT22;2362;50.780;0.292;2023-03-22T16:12:20;11.40;99.90
4697;DHT22;2362;50.780;0.292;2023-03-22T16:14:47;11.40;99.90
4697;DHT22;2362;50.780;0.292;2023-03-22T16:17:24;11.40;99.90
4697;DHT22;2362;50.780;0.292;2023-03-22T16:19:50;11.40;99.90
4697;DHT22;2362;50.780;0.292;2023-03-22T16:22:18;11.40;99.90
4697;DHT22;2362;50.780;0.292;2023-03-22T16:24:45;11.40;99.90
4697;DHT22;2362;50.780;0.292;2023-03-22T16:27:24;11.40;99.90
4697;DHT22;2362;50.780;0.292;2023-03-22T16:29:50;11.30;99.90
4697;DHT22;2362;50.780;0.292;2023-03-22T16:32:19;11.30;99.90
4697;DHT22;2362;50.780;0.292;2023-03-22T16:34:47;11.30;99.90
4697;DHT22;2362;50.780;0.292;2023-03-22T16:37:24;11.30;99.90
4697;DHT22;2362;50.780;0.292;2023-03-22T16:39:50;11.20;99.90
4697;DHT22;2362;50.780;0.292;2023-03-22T16:42:21;11.20;99.90
4697;DHT22;2362;50.780;0.292;2023-03-22T16:44:49;11.20;99.90
4697;DHT22;2362;50.780;0.292;2023-03-22T16:47:25;11.20;99.90
4697;DHT22;2362;50.780;0.292;2023-03-22T16:49:52;11.20;99.90
4697;DHT22;2362;50.780;0.292;2023-03-22T16:52:23;11.10;99.90
4697;DHT22;2362;50.780;0.292;2023-03-22T16:54:51;11.10;99.90
4697;DHT22;2362;50.780;0.292;2023-03-22T16:57:19;11.00;99.90
4697;DHT22;2362;50.780;0.292;2023-03-22T16:59:46;11.00;99.90
4697;DHT22;2362;50.780;0.292;2023-03-22T17:02:29;11.00;99.90
4697;DHT22;2362;50.780;0.292;2023-03-22T17:04:56;11.00;99.90
4697;DHT22;2362;50.780;0.292;2023-03-22T17:07:24;11.00;99.90
4697;DHT22;2362;50.780;0.292;2023-03-22T17:09:50;11.00;99.90
4697;DHT22;2362;50.780;0.292;2023-03-22T17:12:25;11.00;99.90
4697;DHT22;2362;50.780;0.292;2023-03-22T17:14:52;11.00;99.90
4697;DHT22;2362;50.780;0.292;2023-03-22T17:17:18;11.00;99.90
4697;DHT22;2362;50.780;0.292;2023-03-22T17:19:45;11.10;99.90
4697;DHT22;2362;50.780;0.292;2023-03-22T17:22:12;11.10;99.90
4697;DHT22;2362;50.780;0.292;2023-03-22T17:24:39;11.20;99.90
4697;DHT22;2362;50.780;0.292;2023-03-22T17:27:08;11.20;99.90
4697;DHT22;2362;50.780;0.292;2023-03-22T17:29:34;11.10;99.90
4697;DHT22;2362;50.780;0.292;2023-03-22T17:32:02;11.10;99.90
4697;DHT22;2362;50.780;0.292;2023-03-22T17:34:28;11.10;99.90
4697;DHT22;2362;50.780;0.292;2023-03-22T17:36:54;11.00;99.90
4697;DHT22;2362;50.780;0.292;2023-03-22T17:39:20;11.00;99.90
4697;DHT22;2362;50.780;0.292;2023-03-22T17:41:46;11.00;99.90
4697;DHT22;2362;50.780;0.292;2023-03-22T17:44:14;11.00;99.90
4697;DHT22;2362;50.780;0.292;2023-03-22T17:46:40;11.00;99.90
4697;DHT22;2362;50.780;0.292;2023-03-22T17:49:08;11.00;99.90
4697;DHT22;2362;50.780;0.292;2023-03-22T17:51:34;11.10;99.90
4697;DHT22;2362;50.780;0.292;2023-03-22T17:54:00;11.10;99.90
4697;DHT22;2362;50.780;0.292;2023-03-22T17:56:26;11.20;99.90
4697;DHT22;2362;50.780;0.292;2023-03-22T17:58:51;11.10;99.90
4697;DHT22;2362;50.780;0.292;2023-03-22T18:01:17;11.10;99.90
4697;DHT22;2362;50.780;0.292;2023-03-22T18:03:46;11.10;99.90
4697;DHT22;2362;50.780;0.292;2023-03-22T18:06:12;11.20;99.90
4697;DHT22;2362;50.780;0.292;2023-03-22T18:08:37;11.10;99.90
4697;DHT22;2362;50.780;0.292;2023-03-22T18:11:03;11.10;99.90
4697;DHT22;2362;50.780;0.292;2023-03-22T18:13:30;11.20;99.90
4697;DHT22;2362;50.780;0.292;2023-03-22T18:15:56;11.10;99.90
4697;DHT22;2362;50.780;0.292;2023-03-22T18:18:21;11.20;99.90
4697;DHT22;2362;50.780;0.292;2023-03-22T18:20:47;11.10;99.90
4697;DHT22;2362;50.780;0.292;2023-03-22T18:23:13;11.20;99.90
4697;DHT22;2362;50.780;0.292;2023-03-22T18:25:39;11.10;99.90
4697;DHT22;2362;50.780;0.292;2023-03-22T18:28:05;11.10;99.90
4697;DHT22;2362;50.780;0.292;2023-03-22T18:30:31;11.10;99.90
4697;DHT22;2362;50.780;0.292;2023-03-22T18:32:57;11.20;99.90
4697;DHT22;2362;50.780;0.292;2023-03-22T18:35:22;11.10;99.90
4697;DHT22;2362;50.780;0.292;2023-03-22T18:37:48;11.00;99.90
4697;DHT22;2362;50.780;0.292;2023-03-22T18:40:15;11.00;99.90